Schedule Details


Flight Number: CTN411
Departure: Frankfurt/main (EDDF) at 15:55
Arrival: Kastela (LDSP) at 17:15
Route: NOMBO UZ738 MUN UM867 VAROB DCT GIMIX DCT SABAD L862 GISER UL862 PALEZ L862 OKLAX

Weather Information
EDDF 221620Z 22005KT 200V260 CAVOK 23/09 Q1009 NOSIG
LDSP 221600Z 11009KT 080V140 CAVOK 22/13 Q1017 NOSIG
Schedule Frequency

Route Map